Time;durP1;ratioP1;P1;durP2;ratioP2;P2;SDS_P1;SDS_P2;PMS_P1;PMS_P2;Temp;Humidity;BMP_temperature;BMP_pressure;BME280_temperature;BME280_humidity;BME280_pressure;Samples;Min_cycle;Max_cycle;Signal;HPM_P1;HPM_P2
2022/05/23 00:02:19;;;;;;;8.27;6.17;;;19.20;99.90;;;;;;5049943;28;20457;-65
2022/05/23 00:04:48;;;;;;;9.40;5.97;;;19.20;99.90;;;;;;5050249;28;20545;-67
2022/05/23 00:07:17;;;;;;;7.27;5.90;;;19.20;99.90;;;;;;5050157;28;20457;-67
2022/05/23 00:09:44;;;;;;;6.90;5.70;;;19.20;99.90;;;;;;5049877;28;20453;-66
2022/05/23 00:12:11;;;;;;;6.90;5.70;;;19.10;99.90;;;;;;5049635;28;20473;-66
2022/05/23 00:14:41;;;;;;;9.83;4.93;;;19.20;99.90;;;;;;5049998;28;20536;-67
2022/05/23 00:17:10;;;;;;;8.40;5.60;;;19.10;99.90;;;;;;5049867;28;20517;-64
2022/05/23 00:19:37;;;;;;;7.23;6.27;;;18.90;99.90;;;;;;5049890;28;20454;-66
2022/05/23 00:22:06;;;;;;;8.30;6.20;;;18.90;99.90;;;;;;5049853;28;20535;-63
2022/05/23 00:24:33;;;;;;;6.80;5.23;;;18.90;99.90;;;;;;5049809;28;20838;-65
2022/05/23 00:27:00;;;;;;;7.87;6.03;;;19.00;99.90;;;;;;5049737;28;20453;-64
2022/05/23 00:29:27;;;;;;;10.90;5.33;;;18.90;99.90;;;;;;5049797;28;20480;-65
2022/05/23 00:37:25;;;;;;;6.47;5.03;;;19.00;99.90;;;;;;5049655;28;21030;-65
2022/05/23 00:39:52;;;;;;;6.73;5.43;;;19.00;99.90;;;;;;5049659;28;20519;-67
2022/05/23 00:45:08;;;;;;;6.30;5.03;;;18.80;99.90;;;;;;5049566;28;20950;-68
2022/05/23 00:47:35;;;;;;;7.27;5.93;;;18.70;99.90;;;;;;5049620;28;20495;-67
2022/05/23 00:50:02;;;;;;;10.73;6.17;;;18.60;99.90;;;;;;5049654;28;20449;-65
2022/05/23 00:52:34;;;;;;;7.37;5.00;;;18.60;99.90;;;;;;5049579;28;20478;-64
2022/05/23 00:55:09;;;;;;;6.63;5.10;;;18.70;99.90;;;;;;5049543;28;20454;-65
2022/05/23 00:57:41;;;;;;;6.37;5.10;;;18.70;99.90;;;;;;5049339;28;20877;-64
2022/05/23 01:00:10;;;;;;;6.53;5.03;;;18.80;99.90;;;;;;5049340;28;20539;-64
2022/05/23 01:02:40;;;;;;;7.57;5.40;;;18.80;99.90;;;;;;5049586;28;20516;-65
2022/05/23 01:05:10;;;;;;;6.80;4.80;;;18.70;99.90;;;;;;5049400;28;20461;-66
2022/05/23 01:07:38;;;;;;;8.20;5.10;;;18.70;99.90;;;;;;5049683;28;20457;-63
2022/05/23 01:10:06;;;;;;;6.57;5.53;;;18.60;99.90;;;;;;5049229;28;20446;-65
2022/05/23 01:12:33;;;;;;;7.30;5.53;;;18.60;99.90;;;;;;5049155;28;20970;-68
2022/05/23 01:15:03;;;;;;;7.00;5.00;;;18.70;99.90;;;;;;5049363;28;20450;-66
2022/05/23 01:17:30;;;;;;;7.13;4.97;;;18.80;99.90;;;;;;5049356;28;20535;-66
2022/05/23 01:19:57;;;;;;;8.90;5.00;;;18.80;99.90;;;;;;5049397;28;20450;-65
2022/05/23 01:22:33;;;;;;;8.67;5.10;;;18.70;99.90;;;;;;5049085;28;20469;-66
2022/05/23 01:25:12;;;;;;;8.10;5.07;;;18.40;99.90;;;;;;5052971;28;20503;-66
2022/05/23 01:27:41;;;;;;;7.80;5.10;;;18.20;99.90;;;;;;5053075;28;20828;-65
2022/05/23 01:30:10;;;;;;;8.80;5.87;;;18.20;99.90;;;;;;5053140;28;20954;-66
2022/05/23 01:32:38;;;;;;;7.77;5.77;;;18.30;99.90;;;;;;5053243;28;20978;-68
2022/05/23 01:35:05;;;;;;;7.33;4.83;;;18.40;99.90;;;;;;5053078;28;20450;-65
2022/05/23 01:37:33;;;;;;;7.50;5.83;;;18.30;99.90;;;;;;5052748;28;20454;-65
2022/05/23 01:40:00;;;;;;;7.27;5.67;;;18.10;99.90;;;;;;5052680;28;20939;-65
2022/05/23 01:42:27;;;;;;;6.77;5.07;;;18.10;99.90;;;;;;5052268;28;20516;-63
2022/05/23 01:44:55;;;;;;;6.67;5.13;;;18.30;99.90;;;;;;5052586;28;20453;-65
2022/05/23 01:47:23;;;;;;;6.60;5.33;;;18.30;99.90;;;;;;5052781;28;20464;-63
2022/05/23 01:49:50;;;;;;;7.50;5.57;;;18.50;99.90;;;;;;5052528;28;20817;-62
2022/05/23 01:52:17;;;;;;;6.63;5.67;;;18.40;99.90;;;;;;5052467;28;20466;-69
2022/05/23 01:54:44;;;;;;;5.93;5.10;;;18.20;99.90;;;;;;5052161;28;20484;-65
2022/05/23 01:57:14;;;;;;;10.50;5.53;;;18.20;99.90;;;;;;5052660;28;20545;-63
2022/05/23 02:02:27;;;;;;;6.43;4.73;;;18.20;99.90;;;;;;5052300;28;20588;-64
2022/05/23 02:04:55;;;;;;;6.80;5.40;;;18.30;99.90;;;;;;5052288;28;20461;-64
2022/05/23 02:07:22;;;;;;;6.50;4.97;;;18.40;99.90;;;;;;5052538;28;20569;-63
2022/05/23 02:09:49;;;;;;;8.33;6.63;;;18.50;99.90;;;;;;5052326;28;20492;-63
2022/05/23 02:12:17;;;;;;;6.73;4.90;;;18.40;99.90;;;;;;5052287;28;20556;-63
2022/05/23 02:14:45;;;;;;;6.53;4.90;;;18.40;99.90;;;;;;5052216;28;20895;-66
2022/05/23 02:17:13;;;;;;;6.57;5.23;;;18.50;99.90;;;;;;5052233;28;20450;-65
2022/05/23 02:19:42;;;;;;;6.83;5.63;;;18.40;99.90;;;;;;5052161;28;20493;-63
2022/05/23 02:22:09;;;;;;;6.57;5.30;;;18.30;99.90;;;;;;5052087;28;20987;-63
2022/05/23 02:24:36;;;;;;;6.03;4.93;;;18.30;99.90;;;;;;5051413;28;20481;-65
2022/05/23 02:27:04;;;;;;;8.90;5.40;;;18.30;99.90;;;;;;5051761;28;20926;-66
2022/05/23 02:29:31;;;;;;;7.10;5.90;;;18.30;99.90;;;;;;5052051;28;20450;-63
2022/05/23 02:31:58;;;;;;;7.03;5.60;;;18.20;99.90;;;;;;5051870;28;20922;-62
2022/05/23 02:34:25;;;;;;;7.30;5.40;;;18.20;99.90;;;;;;5050962;28;20997;-65
2022/05/23 02:36:54;;;;;;;6.30;5.40;;;18.20;99.90;;;;;;5051667;28;20938;-63
2022/05/23 02:39:21;;;;;;;7.30;5.77;;;18.00;99.90;;;;;;5051914;28;20555;-62
2022/05/23 02:41:49;;;;;;;7.80;5.43;;;18.00;99.90;;;;;;5051258;28;20504;-64
2022/05/23 02:44:17;;;;;;;7.23;5.17;;;17.90;99.90;;;;;;5051933;28;20458;-64
2022/05/23 02:46:44;;;;;;;6.57;5.77;;;18.00;99.90;;;;;;5051592;28;20445;-63
2022/05/23 02:49:11;;;;;;;7.27;5.67;;;18.00;99.90;;;;;;5051800;28;20461;-62
2022/05/23 02:51:39;;;;;;;7.03;5.60;;;18.10;99.90;;;;;;5051592;28;20474;-65
2022/05/23 02:54:07;;;;;;;8.33;6.30;;;18.10;99.90;;;;;;5051755;28;20453;-63
2022/05/23 02:56:35;;;;;;;7.93;5.50;;;18.00;99.90;;;;;;5051167;28;20953;-61
2022/05/23 02:59:03;;;;;;;7.30;5.90;;;18.00;99.90;;;;;;5051089;28;20573;-65
2022/05/23 03:01:30;;;;;;;8.50;6.17;;;18.00;99.90;;;;;;5051247;28;20978;-64
2022/05/23 03:03:56;;;;;;;6.87;6.10;;;17.70;99.90;;;;;;5051353;28;20454;-63
2022/05/23 03:06:23;;;;;;;10.40;6.70;;;17.60;99.90;;;;;;5051269;28;20449;-64
2022/05/23 03:08:50;;;;;;;7.80;5.50;;;17.70;99.90;;;;;;5050919;28;20507;-65
2022/05/23 03:11:19;;;;;;;9.00;5.80;;;17.70;99.90;;;;;;5050912;28;20474;-64
2022/05/23 03:13:46;;;;;;;7.63;6.53;;;17.90;99.90;;;;;;5051194;28;20477;-66
2022/05/23 03:16:14;;;;;;;8.67;5.70;;;18.10;99.90;;;;;;5051139;28;20446;-64
2022/05/23 03:18:41;;;;;;;9.30;5.90;;;18.20;99.90;;;;;;5051029;28;20477;-68
2022/05/23 03:21:10;;;;;;;7.90;7.10;;;18.20;99.90;;;;;;5050559;28;20549;-65
2022/05/23 03:29:10;;;;;;;8.40;6.67;;;18.10;99.90;;;;;;5050969;28;20433;-64
2022/05/23 03:31:38;;;;;;;10.70;6.73;;;18.10;99.90;;;;;;5050778;28;20469;-64
2022/05/23 03:34:05;;;;;;;9.57;7.07;;;18.00;99.90;;;;;;5050708;28;20454;-66
2022/05/23 03:36:32;;;;;;;8.93;6.83;;;18.10;99.90;;;;;;5050559;28;20450;-66
2022/05/23 03:39:00;;;;;;;7.43;6.43;;;18.10;99.90;;;;;;5050603;28;20493;-67
2022/05/23 03:41:28;;;;;;;10.23;6.70;;;18.10;99.90;;;;;;5050044;28;20493;-68
2022/05/23 03:43:55;;;;;;;11.17;7.47;;;18.10;99.90;;;;;;5050564;28;20453;-65
2022/05/23 03:46:22;;;;;;;10.57;8.10;;;18.20;99.90;;;;;;5049889;28;20453;-66
2022/05/23 03:48:49;;;;;;;9.40;7.20;;;18.20;99.90;;;;;;5050344;28;20446;-66
2022/05/23 03:51:16;;;;;;;8.00;6.93;;;18.10;99.90;;;;;;5050138;28;20493;-66
2022/05/23 03:53:44;;;;;;;8.60;6.80;;;18.10;99.90;;;;;;5050346;28;20449;-66
2022/05/23 03:56:11;;;;;;;9.07;6.90;;;18.20;99.90;;;;;;5050413;28;20488;-66
2022/05/23 03:58:40;;;;;;;10.40;7.07;;;18.20;99.90;;;;;;5050110;28;20680;-66
2022/05/23 04:01:10;;;;;;;10.97;7.30;;;18.20;99.90;;;;;;5049810;28;20546;-66
2022/05/23 04:03:37;;;;;;;9.30;7.27;;;18.30;99.90;;;;;;5050256;28;20548;-67
2022/05/23 04:06:05;;;;;;;9.00;8.03;;;18.40;99.90;;;;;;5050125;28;20917;-67
2022/05/23 04:08:32;;;;;;;10.30;8.43;;;18.50;99.90;;;;;;5050212;28;20442;-66
2022/05/23 04:10:59;;;;;;;11.40;7.73;;;18.50;99.90;;;;;;5049985;28;20477;-66
2022/05/23 04:13:27;;;;;;;8.10;6.63;;;18.70;99.90;;;;;;5049841;28;20454;-66
2022/05/23 04:15:56;;;;;;;11.53;7.53;;;18.70;99.90;;;;;;5049845;28;20537;-66
2022/05/23 04:18:23;;;;;;;8.17;7.33;;;18.70;99.90;;;;;;5049803;28;20929;-66
2022/05/23 04:20:50;;;;;;;10.03;7.90;;;18.70;99.90;;;;;;5049984;28;20457;-66
2022/05/23 04:23:17;;;;;;;12.97;7.80;;;18.90;99.90;;;;;;5049950;28;20460;-66
2022/05/23 04:25:46;;;;;;;10.90;7.83;;;19.00;99.90;;;;;;5049905;28;20815;-66
2022/05/23 04:28:14;;;;;;;9.80;8.23;;;19.00;99.90;;;;;;5049574;28;20450;-66
2022/05/23 04:30:42;;;;;;;9.50;8.07;;;19.10;99.90;;;;;;5049548;28;20458;-66
2022/05/23 04:35:56;;;;;;;10.13;7.40;;;19.40;99.90;;;;;;5049346;28;20437;-66
2022/05/23 04:38:23;;;;;;;12.20;7.70;;;19.40;99.90;;;;;;5049355;28;20505;-67
2022/05/23 04:40:50;;;;;;;9.87;7.60;;;19.50;99.90;;;;;;5049135;28;20465;-66
2022/05/23 04:43:17;;;;;;;12.73;8.10;;;19.60;99.90;;;;;;5049394;28;20458;-66
2022/05/23 04:45:44;;;;;;;10.70;8.00;;;19.60;99.90;;;;;;5049504;28;20957;-67
2022/05/23 04:50:57;;;;;;;12.23;8.17;;;19.80;99.90;;;;;;5049170;28;20822;-65
2022/05/23 04:53:24;;;;;;;11.90;8.00;;;19.80;99.90;;;;;;5049238;28;20513;-66
2022/05/23 04:55:51;;;;;;;14.30;8.50;;;19.70;99.90;;;;;;5049222;28;20496;-67
2022/05/23 04:58:18;;;;;;;10.80;8.27;;;19.70;99.90;;;;;;5050023;28;20457;-66
2022/05/23 05:00:45;;;;;;;9.07;8.17;;;19.80;99.90;;;;;;5053065;28;20460;-66
2022/05/23 05:03:14;;;;;;;14.40;8.73;;;20.00;99.90;;;;;;5053607;28;20453;-65
2022/05/23 05:05:41;;;;;;;11.00;7.93;;;20.10;99.90;;;;;;5053233;28;20950;-65
2022/05/23 05:08:08;;;;;;;13.00;8.40;;;20.30;99.90;;;;;;5052970;28;20449;-67
2022/05/23 05:10:35;;;;;;;12.13;8.37;;;20.40;99.90;;;;;;5053232;28;20793;-64
2022/05/23 05:13:03;;;;;;;10.17;7.40;;;20.50;99.90;;;;;;5053113;28;20915;-64
2022/05/23 05:15:30;;;;;;;13.17;8.20;;;20.50;99.90;;;;;;5053346;28;20461;-63
2022/05/23 05:17:57;;;;;;;12.03;8.10;;;20.60;99.90;;;;;;5053463;28;20453;-66
2022/05/23 05:20:26;;;;;;;11.43;7.30;;;20.70;99.90;;;;;;5052928;28;21002;-64
2022/05/23 05:22:53;;;;;;;10.43;7.93;;;20.70;99.90;;;;;;5052952;28;20851;-64
2022/05/23 05:25:20;;;;;;;9.57;7.87;;;20.80;99.90;;;;;;5052695;28;20516;-64
2022/05/23 05:27:48;;;;;;;12.90;8.27;;;20.90;99.90;;;;;;5053263;28;20461;-70
2022/05/23 05:30:19;;;;;;;12.13;8.70;;;21.00;99.90;;;;;;5053133;28;20442;-68
2022/05/23 05:32:52;;;;;;;11.57;8.63;;;21.00;99.90;;;;;;5052754;28;20913;-64
2022/05/23 05:35:24;;;;;;;11.80;7.10;;;21.10;99.90;;;;;;5052783;28;20454;-66
2022/05/23 05:37:57;;;;;;;8.60;6.83;;;21.20;99.90;;;;;;5052443;28;20465;-67
2022/05/23 05:40:27;;;;;;;7.93;6.50;;;21.10;99.90;;;;;;5052726;28;20500;-65
2022/05/23 05:43:00;;;;;;;9.50;5.43;;;21.00;99.90;;;;;;5052025;28;20541;-67
2022/05/23 05:45:31;;;;;;;7.77;5.00;;;21.00;99.90;;;;;;5052663;28;20466;-65
2022/05/23 05:48:01;;;;;;;14.33;6.20;;;20.90;99.90;;;;;;5052656;28;20457;-67
2022/05/23 05:50:32;;;;;;;7.63;3.90;;;20.90;99.90;;;;;;5052574;28;20454;-70
2022/05/23 05:53:06;;;;;;;10.57;3.50;;;20.70;99.90;;;;;;5052575;28;20507;-66
2022/05/23 05:55:33;;;;;;;9.60;4.17;;;20.60;99.90;;;;;;5052484;28;20454;-64
2022/05/23 05:58:00;;;;;;;6.80;4.70;;;20.50;99.90;;;;;;5052077;28;20454;-65
2022/05/23 06:00:27;;;;;;;10.77;6.30;;;20.60;99.90;;;;;;5052291;28;20550;-66
2022/05/23 06:02:55;;;;;;;10.30;7.73;;;20.90;99.90;;;;;;5052265;28;20967;-70
2022/05/23 06:05:22;;;;;;;14.80;7.67;;;21.10;99.90;;;;;;5052566;28;20457;-68
2022/05/23 06:13:19;;;;;;;8.10;4.37;;;21.40;99.90;;;;;;5052326;28;20476;-66
2022/05/23 06:15:46;;;;;;;8.50;3.80;;;21.30;99.90;;;;;;5052279;28;20803;-67
2022/05/23 06:18:14;;;;;;;6.50;2.67;;;21.40;99.90;;;;;;5052341;28;20453;-67
2022/05/23 06:20:41;;;;;;;7.30;3.10;;;21.50;99.90;;;;;;5051589;28;21012;-67
2022/05/23 06:23:08;;;;;;;5.10;3.40;;;21.70;99.90;;;;;;5051822;28;20996;-67
2022/05/23 06:25:36;;;;;;;6.43;3.10;;;21.80;99.90;;;;;;5051865;28;20454;-67
2022/05/23 06:28:04;;;;;;;12.30;3.40;;;21.80;99.90;;;;;;5051795;28;20454;-66
2022/05/23 06:30:31;;;;;;;8.07;3.10;;;21.70;99.70;;;;;;5051412;28;20449;-67
2022/05/23 06:32:58;;;;;;;6.83;2.90;;;21.60;99.90;;;;;;5051700;28;20454;-66
2022/05/23 06:35:25;;;;;;;6.47;2.23;;;21.90;99.90;;;;;;5051630;28;20545;-66
2022/05/23 06:37:52;;;;;;;8.60;2.90;;;22.20;99.50;;;;;;5051762;28;20450;-66
2022/05/23 06:40:19;;;;;;;6.40;2.47;;;22.30;98.50;;;;;;5051532;28;20500;-66
2022/05/23 06:42:48;;;;;;;10.77;2.80;;;22.30;98.20;;;;;;5051440;28;20485;-66
2022/05/23 06:45:15;;;;;;;8.10;2.90;;;22.20;98.20;;;;;;5051401;28;20458;-66
2022/05/23 06:47:42;;;;;;;6.33;2.60;;;22.30;97.20;;;;;;5051332;28;20453;-66
2022/05/23 06:50:10;;;;;;;4.13;2.60;;;22.20;97.80;;;;;;5051439;28;20441;-66
2022/05/23 06:52:38;;;;;;;4.80;3.03;;;22.40;96.60;;;;;;5051282;28;20816;-67
2022/05/23 06:55:07;;;;;;;6.80;2.93;;;22.30;95.60;;;;;;5051276;28;20461;-66
2022/05/23 06:57:34;;;;;;;5.87;3.20;;;22.30;95.90;;;;;;5051418;28;20516;-67
2022/05/23 07:00:04;;;;;;;5.10;2.83;;;22.70;96.20;;;;;;5051228;28;20489;-67
2022/05/23 07:02:31;;;;;;;6.47;3.60;;;22.80;95.10;;;;;;5050837;28;20474;-67
2022/05/23 07:13:13;;;;;;;9.53;2.80;;;23.20;93.00;;;;;;5050840;28;20460;-69
2022/05/23 07:15:46;;;;;;;7.07;2.50;;;23.20;91.50;;;;;;5051002;28;20461;-67
2022/05/23 07:18:14;;;;;;;5.90;2.70;;;23.00;91.50;;;;;;5051071;28;20938;-70
2022/05/23 07:20:41;;;;;;;6.00;2.53;;;23.10;91.00;;;;;;5050083;28;20532;-68
2022/05/23 07:23:09;;;;;;;5.40;2.53;;;23.20;91.40;;;;;;5050890;28;20453;-70
2022/05/23 07:25:36;;;;;;;6.60;2.87;;;23.50;91.10;;;;;;5050919;28;20557;-69
2022/05/23 07:28:03;;;;;;;6.77;3.10;;;23.60;91.00;;;;;;5050921;28;20499;-68
2022/05/23 07:30:30;;;;;;;5.47;3.10;;;23.70;90.40;;;;;;5050686;28;20446;-69
2022/05/23 07:32:59;;;;;;;5.40;2.50;;;23.80;90.30;;;;;;5050361;28;20453;-68
2022/05/23 07:35:27;;;;;;;5.87;2.53;;;23.70;87.80;;;;;;5050238;28;20461;-70
2022/05/23 07:37:55;;;;;;;6.80;3.20;;;23.60;89.10;;;;;;5050402;28;20457;-66
2022/05/23 07:40:22;;;;;;;5.47;2.40;;;23.80;89.30;;;;;;5050346;28;20493;-71
2022/05/23 07:42:49;;;;;;;5.60;2.97;;;23.90;90.80;;;;;;5050013;28;20790;-68
2022/05/23 07:45:16;;;;;;;6.33;2.90;;;24.00;87.60;;;;;;5050536;28;20454;-66
2022/05/23 07:47:44;;;;;;;6.13;2.70;;;24.20;87.60;;;;;;5050515;28;20456;-68
2022/05/23 07:50:13;;;;;;;5.83;2.00;;;24.20;83.60;;;;;;5050599;28;21176;-70
2022/05/23 08:00:29;;;;;;;5.40;2.10;;;24.20;79.10;;;;;;5050056;28;20482;-65
2022/05/23 08:00:56;;;;;;;4.97;2.20;;;24.30;76.00;;;;;;5049683;28;20497;-69
2022/05/23 08:03:23;;;;;;;4.80;2.00;;;24.20;78.60;;;;;;5049969;28;20960;-69
2022/05/23 08:05:51;;;;;;;5.77;3.00;;;24.30;76.70;;;;;;5050071;28;20457;-67
2022/05/23 08:08:19;;;;;;;8.70;2.67;;;24.50;75.60;;;;;;5050054;28;20906;-68
2022/05/23 08:10:47;;;;;;;5.30;2.10;;;24.40;76.10;;;;;;5049989;28;20457;-71
2022/05/23 08:13:14;;;;;;;4.83;1.97;;;24.50;75.30;;;;;;5049688;28;20918;-70
2022/05/23 08:15:42;;;;;;;4.90;2.63;;;24.70;76.00;;;;;;5049987;28;20472;-70
2022/05/23 08:18:10;;;;;;;4.07;2.33;;;24.90;75.20;;;;;;5050004;28;20796;-67
2022/05/23 08:20:38;;;;;;;6.13;2.53;;;24.70;73.80;;;;;;5049157;28;20501;-68
2022/05/23 08:23:07;;;;;;;8.03;2.27;;;24.60;74.40;;;;;;5049745;28;20486;-71
2022/05/23 08:25:35;;;;;;;6.03;2.27;;;24.50;74.30;;;;;;5049656;28;20458;-68
2022/05/23 08:28:02;;;;;;;5.33;2.30;;;24.60;74.60;;;;;;5050029;28;20473;-68
2022/05/23 08:30:29;;;;;;;5.50;2.53;;;24.50;74.10;;;;;;5049740;28;20450;-66
2022/05/23 08:32:56;;;;;;;4.00;2.23;;;24.50;72.60;;;;;;5049184;28;20465;-67
2022/05/23 08:35:24;;;;;;;11.50;2.50;;;24.50;72.00;;;;;;5049805;28;20500;-69
2022/05/23 08:37:54;;;;;;;6.77;2.23;;;24.50;72.50;;;;;;5049770;28;20462;-69
2022/05/23 08:40:26;;;;;;;5.73;2.30;;;24.60;73.10;;;;;;5047977;28;20459;-70
2022/05/23 08:42:56;;;;;;;4.20;2.20;;;24.50;71.70;;;;;;5049237;28;20489;-68
2022/05/23 08:45:26;;;;;;;4.47;1.93;;;24.70;71.30;;;;;;5049711;28;20453;-67
2022/05/23 08:48:13;;;;;;;5.97;2.30;;;25.00;71.40;;;;;;5049636;28;20492;-66
2022/05/23 08:50:53;;;;;;;4.97;2.10;;;25.20;69.00;;;;;;5049248;28;20554;-68
2022/05/23 08:53:25;;;;;;;4.70;1.80;;;25.20;69.10;;;;;;5049242;28;20943;-70
2022/05/23 08:55:59;;;;;;;4.30;2.00;;;25.40;66.90;;;;;;5049045;28;20512;-66
2022/05/23 08:58:32;;;;;;;4.20;1.93;;;25.80;66.40;;;;;;5049411;28;20465;-70
2022/05/23 09:01:03;;;;;;;4.13;1.93;;;25.70;62.20;;;;;;5049558;28;20508;-72
2022/05/23 09:03:33;;;;;;;5.20;2.20;;;25.60;63.30;;;;;;5049825;28;20449;-68
2022/05/23 09:06:07;;;;;;;5.43;1.90;;;25.60;64.20;;;;;;5049944;28;20449;-70
2022/05/23 09:08:40;;;;;;;4.50;2.10;;;25.60;62.40;;;;;;5050330;28;20438;-67
2022/05/23 09:11:17;;;;;;;6.97;2.20;;;25.80;60.80;;;;;;5050024;28;20474;-71
2022/05/23 09:13:45;;;;;;;5.37;1.90;;;25.80;61.00;;;;;;5049387;28;20992;-67
2022/05/23 09:16:13;;;;;;;4.50;2.20;;;26.10;62.40;;;;;;5049124;28;20482;-69
2022/05/23 09:18:45;;;;;;;5.60;2.37;;;26.20;63.20;;;;;;5049191;28;20462;-68
2022/05/23 09:21:12;;;;;;;5.63;1.83;;;26.60;63.20;;;;;;5049162;28;20493;-66
2022/05/23 09:23:44;;;;;;;4.90;2.07;;;26.80;59.90;;;;;;5049291;28;20507;-70
2022/05/23 09:26:18;;;;;;;6.30;2.27;;;26.80;58.40;;;;;;5049240;28;20462;-68
2022/05/23 09:28:45;;;;;;;6.83;2.80;;;26.70;58.20;;;;;;5049111;28;20485;-69
2022/05/23 09:31:25;;;;;;;4.33;2.30;;;26.70;58.90;;;;;;5049245;28;20477;-71
2022/05/23 09:33:56;;;;;;;3.90;1.83;;;26.80;58.10;;;;;;5049267;28;20461;-68
2022/05/23 09:36:27;;;;;;;4.80;2.80;;;27.00;58.00;;;;;;5049302;28;20830;-70
2022/05/23 09:38:56;;;;;;;5.10;2.33;;;27.00;57.70;;;;;;5048842;28;20450;-69
2022/05/23 09:49:51;;;;;;;5.13;2.10;;;26.90;58.00;;;;;;5052850;28;20479;-68
2022/05/23 09:52:25;;;;;;;5.67;2.27;;;27.20;59.10;;;;;;5052616;28;20982;-70
2022/05/23 09:54:56;;;;;;;6.30;2.37;;;27.50;58.90;;;;;;5052545;28;20490;-70
2022/05/23 09:57:26;;;;;;;6.67;2.47;;;27.80;57.90;;;;;;5052758;28;20936;-70
2022/05/23 09:59:57;;;;;;;6.40;2.60;;;27.70;57.40;;;;;;5052051;28;20445;-69
2022/05/23 10:02:35;;;;;;;5.37;2.70;;;27.70;57.60;;;;;;5052336;28;20539;-65
2022/05/23 10:05:03;;;;;;;4.97;2.77;;;28.10;58.70;;;;;;5052609;28;20456;-69
2022/05/23 10:07:32;;;;;;;6.10;2.13;;;28.10;57.30;;;;;;5051821;28;20445;-71
2022/05/23 10:10:02;;;;;;;7.03;2.13;;;27.90;56.20;;;;;;5052023;28;20465;-70
2022/05/23 10:12:32;;;;;;;6.47;2.80;;;27.60;56.30;;;;;;5052221;28;20474;-68
2022/05/23 10:15:22;;;;;;;5.90;2.30;;;27.50;57.10;;;;;;5052088;28;20461;-66
2022/05/23 10:18:02;;;;;;;5.20;2.27;;;27.40;57.70;;;;;;5048312;28;20537;-67
2022/05/23 10:20:35;;;;;;;6.20;2.60;;;27.70;58.00;;;;;;5051878;28;20481;-66
2022/05/23 10:23:05;;;;;;;4.90;2.23;;;27.50;56.90;;;;;;5052039;28;20539;-65
2022/05/23 10:25:38;;;;;;;9.23;2.60;;;27.40;56.90;;;;;;5052009;28;20454;-64
2022/05/23 10:28:12;;;;;;;4.07;2.37;;;27.50;57.30;;;;;;5051976;28;20454;-68
2022/05/23 10:30:46;;;;;;;4.23;2.00;;;27.40;57.10;;;;;;5051913;28;20969;-72
2022/05/23 10:33:14;;;;;;;5.40;2.97;;;27.10;57.10;;;;;;5051873;28;20481;-67
2022/05/23 10:35:45;;;;;;;5.30;2.40;;;27.10;56.80;;;;;;5051917;28;20462;-70
2022/05/23 10:44:02;;;;;;;4.40;2.10;;;27.40;57.10;;;;;;5051496;28;20848;-68
2022/05/23 10:46:29;;;;;;;4.87;1.87;;;27.60;56.50;;;;;;5051705;28;20458;-69
2022/05/23 10:49:03;;;;;;;4.77;2.13;;;27.90;55.90;;;;;;5051699;28;20449;-67
2022/05/23 10:51:41;;;;;;;4.13;2.13;;;28.10;54.30;;;;;;5051658;28;20486;-70
2022/05/23 10:54:34;;;;;;;4.77;1.97;;;28.40;56.10;;;;;;5051232;28;20450;-67
2022/05/23 10:57:12;;;;;;;4.53;1.80;;;28.60;53.50;;;;;;5050338;28;20919;-67
2022/05/23 10:59:51;;;;;;;4.17;1.57;;;28.80;54.30;;;;;;5051348;28;20450;-68
2022/05/23 11:02:30;;;;;;;4.80;1.77;;;28.80;52.40;;;;;;5051110;28;20548;-70
2022/05/23 11:05:08;;;;;;;4.90;3.10;;;28.90;53.10;;;;;;5051054;28;20457;-69
2022/05/23 11:07:45;;;;;;;5.57;2.97;;;28.80;53.20;;;;;;5051208;28;20890;-68
2022/05/23 11:10:23;;;;;;;3.80;1.87;;;28.90;51.80;;;;;;5051091;28;20464;-71
2022/05/23 11:12:58;;;;;;;4.93;1.90;;;29.00;51.70;;;;;;5050635;28;20469;-67
2022/05/23 11:15:37;;;;;;;3.83;1.70;;;29.00;51.80;;;;;;5050739;28;20965;-68
2022/05/23 11:18:10;;;;;;;4.33;2.20;;;29.10;52.60;;;;;;5051087;28;20540;-67
2022/05/23 11:20:39;;;;;;;5.00;1.73;;;29.20;51.30;;;;;;5050837;28;20482;-64
2022/05/23 11:23:14;;;;;;;5.23;1.60;;;29.40;50.70;;;;;;5050859;28;20457;-66
2022/05/23 11:25:46;;;;;;;4.10;2.10;;;29.60;50.60;;;;;;5050656;28;20541;-68
2022/05/23 11:34:02;;;;;;;4.47;1.73;;;29.90;49.90;;;;;;5050760;28;20441;-67
2022/05/23 11:36:45;;;;;;;4.37;2.00;;;29.90;49.40;;;;;;5050185;28;20947;-64
2022/05/23 11:39:43;;;;;;;3.60;1.60;;;29.90;50.30;;;;;;5050483;28;20931;-65
2022/05/23 11:42:12;;;;;;;6.13;2.50;;;29.90;49.90;;;;;;5049736;28;20493;-65
2022/05/23 11:45:56;;;;;;;7.90;3.33;;;29.90;50.30;;;;;;5049527;28;20842;-67
2022/05/23 11:48:23;;;;;;;6.67;2.60;;;30.00;49.80;;;;;;5049141;28;20930;-65
2022/05/23 11:50:51;;;;;;;5.40;2.47;;;30.10;49.90;;;;;;5048998;28;20512;-65
2022/05/23 11:53:24;;;;;;;4.50;2.47;;;29.80;49.80;;;;;;5049444;28;20454;-64
2022/05/23 11:56:06;;;;;;;4.87;2.37;;;29.70;48.70;;;;;;5049628;28;20449;-64
2022/05/23 11:58:47;;;;;;;5.57;2.57;;;29.10;49.10;;;;;;5049151;28;20453;-66
2022/05/23 12:01:22;;;;;;;6.77;2.23;;;29.00;50.20;;;;;;5049177;28;20521;-66
2022/05/23 12:04:15;;;;;;;4.83;2.07;;;29.10;49.50;;;;;;5049442;28;20456;-64
2022/05/23 12:06:42;;;;;;;4.40;1.93;;;28.80;49.70;;;;;;5048769;28;20485;-66
2022/05/23 12:09:27;;;;;;;4.47;2.00;;;28.30;50.20;;;;;;5049078;28;20458;-67
2022/05/23 12:12:18;;;;;;;4.90;1.90;;;28.20;51.00;;;;;;5049058;28;20466;-64
2022/05/23 12:14:52;;;;;;;15.23;7.50;;;28.20;50.60;;;;;;5048618;28;20803;-64
2022/05/23 12:17:26;;;;;;;6.30;3.50;;;28.70;51.30;;;;;;5048882;28;20460;-64
2022/05/23 12:19:57;;;;;;;5.53;2.53;;;28.30;50.80;;;;;;5048966;28;20541;-64
2022/05/23 12:22:30;;;;;;;5.17;2.27;;;28.20;50.90;;;;;;5049141;28;20489;-67
2022/05/23 12:25:24;;;;;;;5.37;2.27;;;28.50;50.50;;;;;;5049040;28;20523;-66
2022/05/23 12:28:10;;;;;;;3.70;1.70;;;28.70;50.40;;;;;;5049126;28;20541;-66
2022/05/23 12:30:41;;;;;;;4.00;1.80;;;28.60;49.80;;;;;;5049010;28;21105;-64
2022/05/23 12:33:15;;;;;;;4.00;2.00;;;28.30;49.70;;;;;;5048920;28;20526;-65
2022/05/23 12:36:09;;;;;;;4.63;2.50;;;28.30;50.20;;;;;;5048575;28;20485;-65
2022/05/23 12:39:01;;;;;;;4.30;2.00;;;28.50;51.70;;;;;;5045900;28;20476;-63
2022/05/23 12:41:51;;;;;;;4.13;2.00;;;28.60;51.00;;;;;;4996967;28;1242240;-65
2022/05/23 12:44:57;;;;;;;4.63;2.00;;;28.40;51.10;;;;;;5049243;28;20219;-65
2022/05/23 12:47:49;;;;;;;4.47;2.30;;;28.30;50.00;;;;;;5041007;28;20500;-66
2022/05/23 12:50:25;;;;;;;4.83;1.97;;;28.30;50.70;;;;;;5049351;28;20450;-64
2022/05/23 12:53:10;;;;;;;5.17;2.23;;;28.60;49.80;;;;;;5048905;28;20457;-65
2022/05/23 12:55:51;;;;;;;5.10;2.37;;;28.60;49.20;;;;;;5049226;28;20911;-64
2022/05/23 12:58:51;;;;;;;4.83;2.10;;;28.80;50.40;;;;;;5049434;28;20519;-65
2022/05/23 13:01:22;;;;;;;4.70;1.93;;;29.10;49.90;;;;;;5049074;28;20486;-66
2022/05/23 13:03:54;;;;;;;4.40;2.00;;;29.40;49.70;;;;;;5049185;28;20854;-67
2022/05/23 13:06:25;;;;;;;5.70;2.03;;;29.70;49.20;;;;;;5049438;28;20450;-65
2022/05/23 13:09:01;;;;;;;4.10;1.90;;;29.70;50.00;;;;;;5049191;28;20450;-65
2022/05/23 13:11:34;;;;;;;4.40;2.17;;;30.00;49.60;;;;;;5048816;28;20472;-64
2022/05/23 13:14:02;;;;;;;5.70;2.10;;;29.90;48.10;;;;;;5049203;28;20464;-65
2022/05/23 13:16:31;;;;;;;6.03;2.40;;;29.90;48.10;;;;;;5049244;28;20456;-66
2022/05/23 13:22:09;;;;;;;4.43;1.90;;;30.60;47.40;;;;;;5052840;28;20647;-65
2022/05/23 13:24:54;;;;;;;7.17;2.67;;;30.70;47.30;;;;;;5053077;28;20458;-65
2022/05/23 13:27:23;;;;;;;5.63;2.40;;;30.30;48.30;;;;;;5053095;28;20484;-66
2022/05/23 13:29:55;;;;;;;4.80;2.20;;;30.40;48.80;;;;;;5052935;28;20568;-64
2022/05/23 13:32:23;;;;;;;6.23;1.97;;;30.40;48.30;;;;;;5052870;28;20478;-66
2022/05/23 13:34:51;;;;;;;6.30;2.27;;;30.60;48.20;;;;;;5052891;28;20500;-64
2022/05/23 13:37:30;;;;;;;6.10;2.63;;;30.50;47.90;;;;;;5053027;28;20476;-66
2022/05/23 13:40:08;;;;;;;5.50;2.33;;;30.50;48.30;;;;;;5052817;28;20449;-66
2022/05/23 13:42:35;;;;;;;4.53;2.33;;;30.50;48.30;;;;;;5052118;28;20493;-64
2022/05/23 13:45:11;;;;;;;6.00;2.70;;;30.10;47.80;;;;;;5052506;28;20826;-64
2022/05/23 13:47:42;;;;;;;4.20;2.10;;;29.80;47.80;;;;;;5052748;28;20858;-64
2022/05/23 13:50:13;;;;;;;8.73;2.90;;;29.40;47.40;;;;;;5052614;28;20445;-66
2022/05/23 13:52:45;;;;;;;5.73;2.50;;;29.30;47.80;;;;;;5052571;28;20953;-65
2022/05/23 13:55:19;;;;;;;4.77;2.27;;;29.50;48.30;;;;;;5052330;28;20511;-66
2022/05/23 13:57:50;;;;;;;5.17;1.97;;;29.40;47.80;;;;;;5052319;28;20465;-65
2022/05/23 14:00:21;;;;;;;5.40;2.53;;;29.60;47.60;;;;;;5052539;28;20450;-63
2022/05/23 14:02:52;;;;;;;5.87;2.30;;;29.70;47.60;;;;;;5052557;28;20485;-65
2022/05/23 14:05:20;;;;;;;5.70;2.30;;;29.90;47.00;;;;;;5052593;28;20804;-66
2022/05/23 14:07:48;;;;;;;4.73;2.40;;;29.90;46.40;;;;;;5052038;28;20493;-64
2022/05/23 14:10:25;;;;;;;4.30;2.33;;;30.30;46.90;;;;;;5052106;28;20457;-66